createdAt,value
2022-12-15T00:00:45.009Z,41.97
2022-12-15T00:06:05.479Z,41.38
2022-12-15T00:11:25.865Z,39.85
2022-12-15T00:16:46.338Z,41.08
2022-12-15T00:22:07.115Z,40.20
2022-12-15T00:27:27.416Z,41.03
2022-12-15T00:32:47.974Z,41.03
2022-12-15T00:38:08.422Z,40.17
2022-12-15T00:43:12.134Z,40.85
2022-12-15T00:48:14.584Z,39.58
2022-12-15T00:53:35.006Z,40.22
2022-12-15T00:58:56.440Z,38.58
2022-12-15T01:04:17.010Z,37.58
2022-12-15T01:09:37.552Z,39.22
2022-12-15T01:14:58.084Z,38.25
2022-12-15T01:20:18.512Z,37.25
2022-12-15T01:25:22.650Z,38.95
2022-12-15T01:30:26.989Z,37.42
2022-12-15T01:35:30.630Z,38.53
2022-12-15T01:40:50.156Z,39.55
2022-12-15T01:45:56.634Z,38.30
2022-12-15T01:51:12.959Z,39.80
2022-12-15T01:56:15.508Z,38.63
2022-12-15T02:01:17.954Z,35.42
2022-12-15T02:06:25.687Z,28.88
2022-12-15T02:11:42.726Z,37.42
2022-12-15T02:17:06.463Z,36.63
2022-12-15T02:27:49.327Z,38.63
2022-12-15T02:33:07.031Z,37.03
2022-12-15T02:38:09.834Z,37.45
2022-12-15T02:43:12.001Z,29.13
2022-12-15T02:48:46.709Z,36.45
2022-12-15T02:54:14.133Z,37.95
2022-12-15T02:59:33.183Z,38.90
2022-12-15T03:04:35.356Z,38.53
2022-12-15T03:09:37.738Z,41.15
2022-12-15T03:14:39.835Z,39.90
2022-12-15T03:19:41.864Z,38.75
2022-12-15T03:24:44.057Z,41.33
2022-12-15T03:29:46.090Z,41.65
2022-12-15T03:34:48.329Z,39.72
2022-12-15T03:39:50.557Z,40.35
2022-12-15T03:44:52.596Z,39.38
2022-12-15T03:49:54.691Z,41.25
2022-12-15T03:54:56.761Z,38.55
2022-12-15T03:59:59.016Z,40.03
2022-12-15T04:05:01.151Z,39.80
2022-12-15T04:10:03.438Z,40.65
2022-12-15T04:15:07.540Z,40.90
2022-12-15T04:20:10.204Z,39.10
2022-12-15T04:25:37.460Z,38.33
2022-12-15T04:31:00.893Z,42.15
2022-12-15T04:36:21.555Z,43.30
2022-12-15T04:41:43.188Z,46.72
2022-12-15T04:47:03.899Z,50.88
2022-12-15T04:52:24.449Z,51.47
2022-12-15T04:57:44.740Z,53.00
2022-12-15T05:03:07.150Z,52.83
2022-12-15T05:08:27.480Z,57.78
2022-12-15T05:13:48.223Z,61.47
2022-12-15T05:19:08.471Z,59.80
2022-12-15T05:24:29.220Z,52.08
2022-12-15T05:29:49.655Z,51.55
2022-12-15T05:34:51.823Z,49.15
2022-12-15T05:39:53.697Z,49.20
2022-12-15T05:44:55.523Z,47.78
2022-12-15T05:49:57.391Z,49.55
2022-12-15T05:54:59.266Z,49.00
2022-12-15T06:00:01.895Z,50.42
2022-12-15T06:05:13.738Z,49.50
2022-12-15T06:10:15.696Z,52.60
2022-12-15T06:15:17.556Z,53.75
2022-12-15T06:20:19.393Z,53.85
2022-12-15T06:25:21.224Z,70.03
2022-12-15T06:30:23.147Z,53.42
2022-12-15T06:35:25.026Z,53.85
2022-12-15T06:40:26.884Z,54.55
2022-12-15T06:45:28.968Z,55.13
2022-12-15T06:50:31.207Z,57.65
2022-12-15T06:55:33.547Z,70.05
2022-12-15T07:00:38.936Z,61.45
2022-12-15T07:05:41.473Z,55.28
2022-12-15T07:10:44.178Z,57.83
2022-12-15T07:15:46.092Z,54.47
2022-12-15T07:20:49.779Z,49.38
2022-12-15T07:25:51.811Z,47.55
2022-12-15T07:30:53.709Z,47.60
2022-12-15T07:35:56.024Z,52.17
2022-12-15T07:41:03.256Z,50.92
2022-12-15T07:46:06.454Z,58.35
2022-12-15T07:51:18.806Z,64.40
2022-12-15T07:56:21.423Z,58.88
2022-12-15T08:01:24.680Z,56.35
2022-12-15T08:06:26.986Z,60.58
2022-12-15T08:11:29.148Z,61.92
2022-12-15T08:16:31.636Z,54.67
2022-12-15T08:21:33.867Z,56.78
2022-12-15T08:26:37.943Z,59.08
2022-12-15T08:31:40.562Z,59.33
2022-12-15T08:36:42.621Z,65.60
2022-12-15T08:41:44.554Z,62.85
2022-12-15T08:46:46.375Z,60.60
2022-12-15T08:51:50.153Z,60.63
2022-12-15T08:56:52.399Z,62.72
2022-12-15T09:01:54.603Z,54.88
2022-12-15T09:06:56.823Z,53.92
2022-12-15T09:11:58.953Z,57.15
2022-12-15T09:17:01.133Z,56.55
2022-12-15T09:22:03.895Z,56.70
2022-12-15T09:27:06.177Z,55.70
2022-12-15T09:32:13.837Z,55.35
2022-12-15T09:37:16.360Z,51.75
2022-12-15T09:42:29.775Z,50.55
2022-12-15T09:47:44.115Z,48.45
2022-12-15T09:52:56.730Z,52.38
2022-12-15T09:58:12.941Z,51.67
2022-12-15T10:03:40.784Z,51.67
2022-12-15T10:09:24.076Z,52.72
2022-12-15T10:14:41.320Z,52.70
2022-12-15T10:20:00.612Z,56.03
2022-12-15T10:25:16.328Z,54.17
2022-12-15T10:30:18.312Z,57.65
2022-12-15T10:35:28.755Z,55.50
2022-12-15T10:40:44.679Z,55.22
2022-12-15T10:46:21.938Z,56.72
2022-12-15T10:51:32.600Z,55.33
2022-12-15T10:56:35.937Z,60.05
2022-12-15T11:01:38.083Z,55.42
2022-12-15T11:06:42.895Z,58.38
2022-12-15T11:12:11.932Z,56.50
2022-12-15T11:17:23.061Z,57.30
2022-12-15T11:22:42.888Z,59.67
2022-12-15T11:28:06.905Z,58.15
2022-12-15T11:33:10.771Z,59.15
2022-12-15T11:38:29.247Z,56.10
2022-12-15T11:43:55.692Z,57.50
2022-12-15T11:49:19.305Z,58.63
2022-12-15T11:54:28.297Z,73.85
2022-12-15T11:59:51.900Z,60.03
2022-12-15T12:05:15.888Z,60.22
2022-12-15T12:10:26.922Z,58.72
2022-12-15T12:15:49.317Z,59.08
2022-12-15T12:21:14.264Z,57.80
2022-12-15T12:26:50.193Z,56.15
2022-12-15T12:32:04.158Z,55.90
2022-12-15T12:37:33.814Z,60.13
2022-12-15T12:42:46.260Z,58.95
2022-12-15T12:47:56.096Z,62.97
2022-12-15T12:53:00.609Z,64.18
2022-12-15T12:58:02.897Z,53.08
2022-12-15T13:03:20.757Z,50.17
2022-12-15T13:08:49.195Z,50.88
2022-12-15T13:13:53.783Z,55.38
2022-12-15T13:19:05.163Z,40.13
2022-12-15T13:24:24.199Z,53.30
2022-12-15T13:29:26.131Z,54.53
2022-12-15T13:34:35.808Z,55.10
2022-12-15T13:39:53.893Z,54.60
2022-12-15T13:45:07.072Z,57.92
2022-12-15T13:50:20.316Z,58.42
2022-12-15T13:55:31.776Z,62.65
2022-12-15T14:00:34.005Z,68.32
2022-12-15T14:05:36.716Z,65.07
2022-12-15T14:10:56.850Z,63.77
2022-12-15T14:16:04.220Z,65.47
2022-12-15T14:21:18.574Z,54.72
2022-12-15T14:26:31.645Z,50.88
2022-12-15T14:31:36.866Z,52.33
2022-12-15T14:36:41.324Z,63.72
2022-12-15T14:41:48.821Z,48.45
2022-12-15T14:46:51.834Z,48.25
2022-12-15T14:52:05.121Z,46.38
2022-12-15T14:57:22.381Z,44.90
2022-12-15T15:02:27.061Z,48.10
2022-12-15T15:07:33.757Z,46.17
2022-12-15T15:12:45.010Z,50.63
2022-12-15T15:17:52.716Z,49.50
2022-12-15T15:23:12.883Z,52.95
2022-12-15T15:28:17.957Z,53.95
2022-12-15T15:33:20.348Z,53.60
2022-12-15T15:38:24.189Z,59.20
2022-12-15T15:43:27.673Z,75.70
2022-12-15T15:48:45.545Z,71.43
2022-12-15T15:53:48.042Z,58.95
2022-12-15T15:58:50.085Z,58.13
2022-12-15T16:03:52.074Z,64.05
2022-12-15T16:08:54.335Z,60.63
2022-12-15T16:13:56.774Z,57.22
2022-12-15T16:18:58.971Z,59.15
2022-12-15T16:24:08.436Z,57.33
2022-12-15T16:29:16.046Z,60.72
2022-12-15T16:34:19.140Z,60.63
2022-12-15T16:39:31.517Z,63.15
2022-12-15T16:44:33.448Z,60.65
2022-12-15T16:49:40.135Z,65.05
2022-12-15T16:54:45.228Z,67.55
2022-12-15T16:59:49.794Z,61.28
2022-12-15T17:04:51.895Z,69.68
2022-12-15T17:09:53.899Z,69.47
2022-12-15T17:14:57.578Z,75.50
2022-12-15T17:26:01.170Z,79.93
2022-12-15T17:30:58.691Z,78.68
2022-12-15T17:36:03.234Z,66.63
2022-12-15T17:41:05.780Z,66.32
2022-12-15T17:46:08.422Z,66.20
2022-12-15T17:51:18.726Z,76.32
2022-12-15T17:56:21.332Z,74.75
2022-12-15T18:01:24.974Z,69.68
2022-12-15T18:11:30.541Z,91.03
2022-12-15T18:21:34.703Z,78.15
2022-12-15T18:26:38.080Z,88.77
2022-12-15T18:31:42.652Z,108.63
2022-12-15T18:36:45.009Z,110.78
2022-12-15T18:41:48.129Z,106.68
2022-12-15T18:46:50.344Z,102.15
2022-12-15T18:51:52.515Z,102.43
2022-12-15T18:56:55.761Z,103.95
2022-12-15T19:01:57.776Z,185.63
2022-12-15T19:07:06.611Z,158.85
2022-12-15T19:12:17.515Z,157.10
2022-12-15T19:17:39.924Z,141.68
2022-12-15T19:22:42.476Z,159.77
2022-12-15T19:27:45.587Z,131.43
2022-12-15T19:32:48.052Z,132.15
2022-12-15T19:37:50.279Z,119.03
2022-12-15T19:42:52.926Z,102.38
2022-12-15T19:47:58.442Z,89.75
2022-12-15T19:53:04.623Z,90.37
2022-12-15T19:58:27.794Z,105.10
2022-12-15T20:03:31.991Z,90.57
2022-12-15T20:08:37.054Z,86.10
2022-12-15T20:13:38.957Z,122.38
2022-12-15T20:18:40.931Z,136.10
2022-12-15T20:23:58.278Z,100.25
2022-12-15T20:29:01.135Z,95.97
2022-12-15T20:34:04.251Z,90.73
2022-12-15T20:39:21.139Z,111.30
2022-12-15T20:44:23.815Z,94.10
2022-12-15T20:49:25.729Z,102.27
2022-12-15T20:54:27.666Z,93.78
2022-12-15T20:59:29.760Z,99.53
2022-12-15T21:04:32.784Z,108.03
2022-12-15T21:09:34.743Z,103.93
2022-12-15T21:14:36.637Z,102.43
2022-12-15T21:19:38.547Z,107.43
2022-12-15T21:24:40.472Z,105.50
2022-12-15T21:29:50.369Z,115.38
2022-12-15T21:34:54.719Z,108.10
2022-12-15T21:39:58.077Z,100.78
2022-12-15T21:45:00.562Z,102.72
2022-12-15T21:50:02.478Z,91.10
2022-12-15T21:55:24.541Z,97.32
2022-12-15T22:00:26.661Z,92.47
2022-12-15T22:05:32.490Z,105.38
2022-12-15T22:10:34.722Z,104.88
2022-12-15T22:15:36.690Z,89.80
2022-12-15T22:20:38.741Z,80.40
2022-12-15T22:25:40.835Z,77.32
2022-12-15T22:30:43.130Z,80.00
2022-12-15T22:35:45.080Z,77.93
2022-12-15T22:40:49.215Z,78.18
2022-12-15T22:45:55.215Z,77.80
2022-12-15T22:50:57.253Z,71.35
2022-12-15T22:56:01.101Z,69.53
2022-12-15T23:01:06.467Z,73.53
2022-12-15T23:06:08.512Z,71.63
2022-12-15T23:11:28.786Z,72.22
2022-12-15T23:16:31.044Z,66.38
2022-12-15T23:21:33.148Z,64.93
2022-12-15T23:26:35.144Z,65.65
2022-12-15T23:31:37.363Z,63.92
2022-12-15T23:36:39.711Z,63.67
2022-12-15T23:41:41.632Z,60.42
2022-12-15T23:46:43.992Z,58.70
2022-12-15T23:51:46.163Z,58.00
2022-12-15T23:56:48.432Z,53.25
